createdAt,value
2022-11-17T00:01:06.906Z,99351.78
2022-11-17T00:03:37.445Z,99347.63
2022-11-17T00:06:06.822Z,99338.72
2022-11-17T00:08:35.393Z,99340.78
2022-11-17T00:11:04.655Z,99353.06
2022-11-17T00:13:51.298Z,99358.06
2022-11-17T00:16:21.388Z,99359.22
2022-11-17T00:19:09.286Z,99352.81
2022-11-17T00:21:38.012Z,99354.00
2022-11-17T00:24:07.242Z,99343.66
2022-11-17T00:26:57.662Z,99332.22
2022-11-17T00:29:26.525Z,99346.78
2022-11-17T00:32:12.605Z,99345.13
2022-11-17T00:34:42.769Z,99352.44
2022-11-17T00:37:12.640Z,99350.44
2022-11-17T00:39:41.238Z,99358.44
2022-11-17T00:42:09.723Z,99359.84
2022-11-17T00:44:38.281Z,99339.72
2022-11-17T00:47:06.907Z,99345.84
2022-11-17T00:49:36.810Z,99344.88
2022-11-17T00:52:07.173Z,99328.94
2022-11-17T00:54:35.959Z,99291.81
2022-11-17T00:57:04.425Z,99326.03
2022-11-17T00:59:32.957Z,99331.34
2022-11-17T01:02:01.789Z,99316.69
2022-11-17T01:04:30.391Z,99320.44
2022-11-17T01:06:59.076Z,99319.44
2022-11-17T01:09:29.093Z,99318.63
2022-11-17T01:11:57.664Z,99310.19
2022-11-17T01:14:27.773Z,99316.06
2022-11-17T01:16:56.714Z,99321.44
2022-11-17T01:19:26.420Z,99315.34
2022-11-17T01:21:54.890Z,99307.56
2022-11-17T01:24:24.123Z,99313.03
2022-11-17T01:26:54.180Z,99310.16
2022-11-17T01:29:22.799Z,99302.81
2022-11-17T01:31:52.768Z,99312.69
2022-11-17T01:34:21.266Z,99290.09
2022-11-17T01:37:07.182Z,99286.06
2022-11-17T01:39:35.727Z,99285.25
2022-11-17T01:42:12.868Z,99291.22
2022-11-17T01:45:19.260Z,99283.34
2022-11-17T01:47:51.193Z,99289.56
2022-11-17T01:50:31.123Z,99291.94
2022-11-17T01:53:02.388Z,99291.00
2022-11-17T01:55:37.090Z,99279.22
2022-11-17T01:58:11.950Z,99269.81
2022-11-17T02:00:41.525Z,99277.00
2022-11-17T02:03:10.724Z,99265.41
2022-11-17T02:05:51.320Z,99274.56
2022-11-17T02:08:23.575Z,99275.69
2022-11-17T02:10:53.491Z,99280.00
2022-11-17T02:13:24.183Z,99272.59
2022-11-17T02:15:52.700Z,99272.50
2022-11-17T02:18:21.631Z,99264.59
2022-11-17T02:21:16.361Z,99275.03
2022-11-17T02:24:21.083Z,99259.66
2022-11-17T02:27:09.496Z,99281.91
2022-11-17T02:29:47.883Z,99275.16
2022-11-17T02:32:23.935Z,99279.06
2022-11-17T02:35:00.854Z,99287.13
2022-11-17T02:37:35.786Z,99279.88
2022-11-17T02:40:10.718Z,99292.28
2022-11-17T02:42:56.959Z,99260.75
2022-11-17T02:45:34.022Z,99278.03
2022-11-17T02:48:06.687Z,99279.78
2022-11-17T02:50:36.189Z,99276.09
2022-11-17T02:53:05.352Z,99266.69
2022-11-17T02:55:38.435Z,99263.50
2022-11-17T02:58:12.418Z,99265.34
2022-11-17T03:00:53.086Z,99251.53
2022-11-17T03:03:36.391Z,99256.44
2022-11-17T03:06:16.576Z,99260.41
2022-11-17T03:08:50.690Z,99251.97
2022-11-17T03:11:25.431Z,99252.97
2022-11-17T03:14:00.214Z,99249.34
2022-11-17T03:16:35.318Z,99250.25
2022-11-17T03:19:12.681Z,99246.88
2022-11-17T03:21:46.458Z,99239.19
2022-11-17T03:24:19.622Z,99234.25
2022-11-17T03:26:54.625Z,99243.94
2022-11-17T03:29:28.170Z,99247.31
2022-11-17T03:32:01.861Z,99257.19
2022-11-17T03:34:35.290Z,99269.53
2022-11-17T03:37:07.010Z,99274.63
2022-11-17T03:39:38.091Z,99249.69
2022-11-17T03:42:09.994Z,99281.22
2022-11-17T03:44:41.738Z,99276.44
2022-11-17T03:47:16.650Z,99283.66
2022-11-17T03:49:48.787Z,99284.69
2022-11-17T03:52:17.657Z,99280.88
2022-11-17T03:54:46.231Z,99282.50
2022-11-17T03:57:21.361Z,99278.72
2022-11-17T03:59:56.980Z,99277.47
2022-11-17T04:02:28.522Z,99274.41
2022-11-17T04:05:09.403Z,99274.13
2022-11-17T04:07:40.271Z,99270.94
2022-11-17T04:10:11.049Z,99265.28
2022-11-17T04:12:57.072Z,99275.28
2022-11-17T04:15:43.426Z,99258.13
2022-11-17T04:18:13.439Z,99268.47
2022-11-17T04:20:42.011Z,99269.81
2022-11-17T04:23:14.215Z,99259.53
2022-11-17T04:26:01.718Z,99293.16
2022-11-17T04:28:41.034Z,99307.00
2022-11-17T04:31:14.618Z,99305.44
2022-11-17T04:33:46.460Z,99305.53
2022-11-17T04:36:16.767Z,99317.53
2022-11-17T04:38:46.697Z,99322.88
2022-11-17T04:41:34.256Z,99327.50
2022-11-17T04:44:03.553Z,99321.75
2022-11-17T04:46:34.003Z,99337.75
2022-11-17T04:49:04.257Z,99349.94
2022-11-17T04:51:33.614Z,99342.88
2022-11-17T04:54:03.289Z,99335.41
2022-11-17T04:56:32.226Z,99338.56
2022-11-17T04:59:00.773Z,99345.00
2022-11-17T05:04:58.456Z,99350.72
2022-11-17T05:07:27.991Z,99344.94
2022-11-17T05:09:56.489Z,99346.41
2022-11-17T05:12:42.487Z,99361.34
2022-11-17T05:15:11.331Z,99350.91
2022-11-17T05:17:38.717Z,99365.94
2022-11-17T05:20:09.893Z,99379.56
2022-11-17T05:22:55.785Z,99376.41
2022-11-17T05:25:24.589Z,99381.03
2022-11-17T05:27:54.715Z,99378.41
2022-11-17T05:30:23.345Z,99379.75
2022-11-17T05:32:51.778Z,99381.38
2022-11-17T05:35:21.595Z,99371.31
2022-11-17T05:37:50.139Z,99368.69
2022-11-17T05:40:18.663Z,99383.00
2022-11-17T05:42:47.093Z,99382.69
2022-11-17T05:45:15.583Z,99374.28
2022-11-17T05:47:44.007Z,99385.69
2022-11-17T05:50:12.415Z,99377.41
2022-11-17T05:52:42.321Z,99369.94
2022-11-17T05:55:11.148Z,99377.72
2022-11-17T05:57:39.734Z,99365.69
2022-11-17T06:00:10.064Z,99376.09
2022-11-17T06:02:47.582Z,99387.44
2022-11-17T06:05:20.217Z,99367.50
2022-11-17T06:07:51.254Z,99385.78
2022-11-17T06:10:19.664Z,99381.34
2022-11-17T06:12:48.291Z,99382.34
2022-11-17T06:15:16.794Z,99376.94
2022-11-17T06:17:48.868Z,99381.34
2022-11-17T06:20:20.795Z,99381.69
2022-11-17T06:22:51.966Z,99392.94
2022-11-17T06:25:21.528Z,99395.91
2022-11-17T06:27:51.802Z,99402.22
2022-11-17T06:30:20.447Z,99417.44
2022-11-17T06:32:50.125Z,99416.25
2022-11-17T06:35:19.266Z,99421.38
2022-11-17T06:37:47.695Z,99416.72
2022-11-17T06:40:18.773Z,99418.03
2022-11-17T06:43:00.972Z,99421.19
2022-11-17T06:45:29.391Z,99423.16
2022-11-17T06:47:57.786Z,99431.25
2022-11-17T06:50:26.234Z,99438.69
2022-11-17T06:52:58.172Z,99429.31
2022-11-17T06:55:28.814Z,99425.81
2022-11-17T06:58:01.468Z,99428.63
2022-11-17T07:00:31.499Z,99436.56
2022-11-17T07:03:03.728Z,99424.50
2022-11-17T07:05:33.381Z,99423.34
2022-11-17T07:08:03.921Z,99439.03
2022-11-17T07:10:34.994Z,99441.31
2022-11-17T07:13:03.761Z,99443.16
2022-11-17T07:15:33.049Z,99439.84
2022-11-17T07:18:01.623Z,99441.69
2022-11-17T07:20:30.248Z,99429.75
2022-11-17T07:23:00.848Z,99446.81
2022-11-17T07:25:29.330Z,99459.69
2022-11-17T07:28:02.271Z,99453.75
2022-11-17T07:30:30.871Z,99452.41
2022-11-17T07:33:00.426Z,99452.75
2022-11-17T07:35:29.326Z,99435.56
2022-11-17T07:38:01.631Z,99453.44
2022-11-17T07:40:30.729Z,99445.97
2022-11-17T07:42:59.378Z,99443.84
2022-11-17T07:45:31.951Z,99448.16
2022-11-17T07:48:02.578Z,99439.34
2022-11-17T07:50:31.636Z,99439.19
2022-11-17T07:53:00.247Z,99449.59
2022-11-17T07:55:29.219Z,99448.44
2022-11-17T07:57:59.088Z,99430.88
2022-11-17T08:00:31.368Z,99448.75
2022-11-17T08:03:02.197Z,99453.06
2022-11-17T08:05:32.264Z,99453.72
2022-11-17T08:08:01.555Z,99461.25
2022-11-17T08:10:31.769Z,99457.25
2022-11-17T08:13:01.068Z,99478.34
2022-11-17T08:15:32.046Z,99470.34
2022-11-17T08:18:01.850Z,99472.06
2022-11-17T08:20:31.098Z,99474.34
2022-11-17T08:22:59.735Z,99478.78
2022-11-17T08:25:28.979Z,99490.84
2022-11-17T08:27:58.353Z,99500.63
2022-11-17T08:30:28.776Z,99490.75
2022-11-17T08:32:58.699Z,99509.28
2022-11-17T08:35:29.796Z,99516.34
2022-11-17T08:38:01.782Z,99527.44
2022-11-17T08:40:30.253Z,99496.34
2022-11-17T08:43:01.642Z,99496.53
2022-11-17T08:45:31.637Z,99513.53
2022-11-17T08:48:01.589Z,99502.63
2022-11-17T08:50:30.147Z,99509.25
2022-11-17T08:52:58.662Z,99508.25
2022-11-17T08:55:27.438Z,99507.41
2022-11-17T08:57:56.009Z,99503.28
2022-11-17T09:00:24.854Z,99502.44
2022-11-17T09:02:53.395Z,99506.56
2022-11-17T09:05:25.141Z,99522.97
2022-11-17T09:07:53.724Z,99522.72
2022-11-17T09:10:22.564Z,99525.09
2022-11-17T09:12:51.044Z,99527.88
2022-11-17T09:15:20.107Z,99518.09
2022-11-17T09:17:48.606Z,99524.38
2022-11-17T09:20:18.114Z,99506.13
2022-11-17T09:22:48.394Z,99516.66
2022-11-17T09:25:17.084Z,99511.72
2022-11-17T09:27:46.009Z,99495.19
2022-11-17T09:30:15.761Z,99510.25
2022-11-17T09:32:44.173Z,99502.44
2022-11-17T09:35:12.652Z,99497.09
2022-11-17T09:37:41.183Z,99505.59
2022-11-17T09:40:16.478Z,99491.94
2022-11-17T09:42:45.580Z,99497.31
2022-11-17T09:45:23.256Z,99492.56
2022-11-17T09:48:12.484Z,99490.78
2022-11-17T09:50:48.411Z,99495.81
2022-11-17T09:53:25.866Z,99488.16
2022-11-17T09:55:59.361Z,99484.53
2022-11-17T09:58:34.808Z,99490.34
2022-11-17T10:01:03.859Z,99483.84
2022-11-17T10:03:36.417Z,99479.97
2022-11-17T10:06:15.144Z,99474.28
2022-11-17T10:08:48.414Z,99476.47
2022-11-17T10:11:35.121Z,99466.13
2022-11-17T10:14:12.863Z,99464.91
2022-11-17T10:16:44.326Z,99462.13
2022-11-17T10:19:19.110Z,99471.06
2022-11-17T10:21:50.672Z,99469.63
2022-11-17T10:24:35.009Z,99469.63
2022-11-17T10:27:06.861Z,99451.56
2022-11-17T10:29:35.673Z,99486.63
2022-11-17T10:32:15.453Z,99482.00
2022-11-17T10:34:43.994Z,99461.97
2022-11-17T10:37:28.949Z,99485.56
2022-11-17T10:40:24.725Z,99489.13
2022-11-17T10:43:24.765Z,99486.78
2022-11-17T10:45:56.336Z,99489.81
2022-11-17T10:48:28.981Z,99458.38
2022-11-17T10:50:58.874Z,99477.16
2022-11-17T10:53:32.180Z,99459.91
2022-11-17T10:56:13.297Z,99492.31
2022-11-17T10:59:12.510Z,99462.94
2022-11-17T11:01:43.395Z,99469.22
2022-11-17T11:04:33.235Z,99484.50
2022-11-17T11:07:10.466Z,99488.81
2022-11-17T11:09:46.004Z,99475.91
2022-11-17T11:12:20.363Z,99490.91
2022-11-17T11:14:53.993Z,99477.72
2022-11-17T11:17:22.485Z,99482.16
2022-11-17T11:19:54.297Z,99475.03
2022-11-17T11:22:37.185Z,99475.00
2022-11-17T11:25:16.915Z,99512.31
2022-11-17T11:28:09.276Z,99520.91
2022-11-17T11:30:45.179Z,99524.78
2022-11-17T11:33:27.094Z,99520.56
2022-11-17T11:36:36.809Z,99504.16
2022-11-17T11:39:13.908Z,99510.25
2022-11-17T11:42:15.145Z,99514.88
2022-11-17T11:45:01.188Z,99515.16
2022-11-17T11:47:47.391Z,99511.56
2022-11-17T11:50:20.783Z,99512.94
2022-11-17T11:52:53.559Z,99496.34
2022-11-17T11:55:25.641Z,99491.75
2022-11-17T11:58:02.145Z,99492.59
2022-11-17T12:00:30.634Z,99493.09
2022-11-17T12:03:10.810Z,99489.13
2022-11-17T12:05:49.553Z,99489.19
2022-11-17T12:08:29.377Z,99475.75
2022-11-17T12:11:23.950Z,99488.44
2022-11-17T12:13:54.427Z,99461.38
2022-11-17T12:16:30.357Z,99466.84
2022-11-17T12:19:00.509Z,99471.09
2022-11-17T12:21:30.368Z,99468.63
2022-11-17T12:24:17.235Z,99475.78
2022-11-17T12:26:45.700Z,99467.81
2022-11-17T12:29:32.088Z,99470.31
2022-11-17T12:32:03.433Z,99471.16
2022-11-17T12:34:36.010Z,99477.81
2022-11-17T12:37:22.057Z,99467.75
2022-11-17T12:40:09.951Z,99462.22
2022-11-17T12:43:16.471Z,99471.19
2022-11-17T12:46:03.639Z,99462.63
2022-11-17T12:48:35.586Z,99460.97
2022-11-17T12:51:14.839Z,99441.09
2022-11-17T12:53:58.609Z,99456.25
2022-11-17T12:56:39.340Z,99451.16
2022-11-17T12:59:33.581Z,99461.56
2022-11-17T13:02:15.690Z,99463.44
2022-11-17T13:04:49.955Z,99465.50
2022-11-17T13:07:22.479Z,99467.66
2022-11-17T13:09:53.159Z,99464.22
2022-11-17T13:12:26.799Z,99467.03
2022-11-17T13:14:57.155Z,99467.94
2022-11-17T13:17:29.729Z,99475.38
2022-11-17T13:20:03.979Z,99465.03
2022-11-17T13:22:37.712Z,99486.72
2022-11-17T13:25:23.636Z,99502.69
2022-11-17T13:27:57.201Z,99499.19
2022-11-17T13:30:30.314Z,99483.91
2022-11-17T13:33:01.755Z,99500.53
2022-11-17T13:35:31.877Z,99500.28
2022-11-17T13:38:07.308Z,99490.69
2022-11-17T13:40:38.221Z,99485.06
2022-11-17T13:43:08.623Z,99485.53
2022-11-17T13:45:37.295Z,99481.94
2022-11-17T13:48:06.008Z,99483.47
2022-11-17T13:50:37.341Z,99471.59
2022-11-17T13:53:25.240Z,99465.81
2022-11-17T13:55:54.476Z,99485.13
2022-11-17T13:58:32.969Z,99467.88
2022-11-17T14:01:01.920Z,99481.16
2022-11-17T14:03:36.510Z,99476.44
2022-11-17T14:06:07.755Z,99484.28
2022-11-17T14:08:39.298Z,99489.50
2022-11-17T14:11:14.731Z,99481.38
2022-11-17T14:13:45.818Z,99480.41
2022-11-17T14:16:24.366Z,99483.81
2022-11-17T14:19:05.482Z,99488.19
2022-11-17T14:21:34.304Z,99488.19
2022-11-17T14:24:12.387Z,99487.28
2022-11-17T14:26:45.712Z,99482.78
2022-11-17T14:29:14.678Z,99485.78
2022-11-17T14:31:43.341Z,99474.53
2022-11-17T14:34:11.882Z,99476.00
2022-11-17T14:36:41.373Z,99472.44
2022-11-17T14:39:16.993Z,99470.97
2022-11-17T14:41:47.157Z,99467.22
2022-11-17T14:44:15.901Z,99478.84
2022-11-17T14:46:44.905Z,99466.66
2022-11-17T14:49:13.811Z,99483.31
2022-11-17T14:51:42.508Z,99482.63
2022-11-17T14:54:10.939Z,99490.81
2022-11-17T14:56:40.830Z,99484.75
2022-11-17T14:59:12.384Z,99480.91
2022-11-17T15:01:41.278Z,99493.09
2022-11-17T15:04:42.947Z,99483.06
2022-11-17T15:07:03.510Z,99483.66
2022-11-17T15:09:32.146Z,99485.91
2022-11-17T15:12:02.186Z,99480.28
2022-11-17T15:14:30.601Z,99481.25
2022-11-17T15:16:59.480Z,99473.97
2022-11-17T15:19:28.019Z,99473.00
2022-11-17T15:21:56.459Z,99477.03
2022-11-17T15:24:24.892Z,99480.69
2022-11-17T15:26:53.762Z,99481.28
2022-11-17T15:29:23.630Z,99451.78
2022-11-17T15:31:52.137Z,99486.47
2022-11-17T15:34:20.816Z,99476.22
2022-11-17T15:36:49.400Z,99485.09
2022-11-17T15:39:18.372Z,99480.72
2022-11-17T15:41:48.887Z,99483.72
2022-11-17T15:44:18.957Z,99473.69
2022-11-17T15:46:49.042Z,99481.50
2022-11-17T15:49:18.030Z,99475.31
2022-11-17T15:51:46.942Z,99464.75
2022-11-17T15:54:20.256Z,99486.84
2022-11-17T15:56:51.020Z,99487.53
2022-11-17T15:59:19.978Z,99485.69
2022-11-17T16:01:50.444Z,99487.03
2022-11-17T16:04:18.926Z,99490.75
2022-11-17T16:06:48.061Z,99507.41
2022-11-17T16:09:17.478Z,99507.75
2022-11-17T16:11:46.529Z,99524.59
2022-11-17T16:14:15.470Z,99497.97
2022-11-17T16:16:46.875Z,99507.38
2022-11-17T16:19:19.058Z,99487.69
2022-11-17T16:21:47.666Z,99519.09
2022-11-17T16:24:16.262Z,99527.38
2022-11-17T16:26:45.974Z,99522.22
2022-11-17T16:29:14.925Z,99510.50
2022-11-17T16:31:43.605Z,99520.25
2022-11-17T16:34:15.662Z,99522.44
2022-11-17T16:36:46.070Z,99527.72
2022-11-17T16:39:17.846Z,99521.28
2022-11-17T16:41:47.422Z,99523.06
2022-11-17T16:44:17.407Z,99535.28
2022-11-17T16:46:47.476Z,99536.91
2022-11-17T16:49:18.334Z,99542.00
2022-11-17T17:02:38.152Z,99543.50
2022-11-17T17:05:07.457Z,99545.22
2022-11-17T17:07:35.972Z,99537.56
2022-11-17T17:10:04.902Z,99538.75
2022-11-17T17:12:33.382Z,99543.13
2022-11-17T17:15:02.291Z,99554.91
2022-11-17T17:17:31.086Z,99546.84
2022-11-17T17:20:00.955Z,99527.19
2022-11-17T17:22:29.839Z,99544.53
2022-11-17T17:24:58.541Z,99532.69
2022-11-17T17:27:27.075Z,99528.06
2022-11-17T17:29:57.059Z,99502.94
2022-11-17T17:32:25.614Z,99526.78
2022-11-17T17:34:54.090Z,99539.22
2022-11-17T17:37:23.925Z,99535.47
2022-11-17T17:39:52.356Z,99530.13
2022-11-17T17:42:20.830Z,99538.03
2022-11-17T17:44:49.420Z,99530.13
2022-11-17T17:47:17.884Z,99543.13
2022-11-17T17:49:46.350Z,99553.81
2022-11-17T17:52:15.058Z,99559.47
2022-11-17T17:54:45.152Z,99554.53
2022-11-17T17:57:13.653Z,99557.06
2022-11-17T17:59:42.134Z,99558.38
2022-11-17T18:02:10.931Z,99573.00
2022-11-17T18:04:39.393Z,99566.19
2022-11-17T18:07:08.227Z,99556.75
2022-11-17T18:09:36.834Z,99572.25
2022-11-17T18:12:07.220Z,99579.28
2022-11-17T18:14:35.672Z,99583.34
2022-11-17T18:17:04.359Z,99584.00
2022-11-17T18:19:33.535Z,99578.38
2022-11-17T18:22:02.429Z,99581.44
2022-11-17T18:24:30.878Z,99563.56
2022-11-17T18:26:59.458Z,99593.00
2022-11-17T18:29:29.409Z,99595.84
2022-11-17T18:31:57.920Z,99593.94
2022-11-17T18:34:26.723Z,99594.44
2022-11-17T18:36:56.850Z,99596.03
2022-11-17T18:39:25.676Z,99617.97
2022-11-17T18:41:54.377Z,99608.59
2022-11-17T18:44:22.845Z,99618.53
2022-11-17T18:46:52.841Z,99617.75
2022-11-17T18:49:22.096Z,99623.56
2022-11-17T18:51:51.157Z,99620.09
2022-11-17T18:54:19.664Z,99621.66
2022-11-17T18:56:50.084Z,99628.81
2022-11-17T18:59:19.047Z,99618.19
2022-11-17T19:01:47.898Z,99625.03
2022-11-17T19:04:18.373Z,99610.78
2022-11-17T19:06:46.845Z,99597.09
2022-11-17T19:09:16.348Z,99602.38
2022-11-17T19:11:45.012Z,99619.41
2022-11-17T19:14:13.466Z,99631.00
2022-11-17T19:16:44.832Z,99636.81
2022-11-17T19:19:15.081Z,99643.97
2022-11-17T19:21:45.741Z,99622.31
2022-11-17T19:24:15.559Z,99626.97
2022-11-17T19:26:44.457Z,99631.97
2022-11-17T19:29:17.069Z,99625.56
2022-11-17T19:31:46.841Z,99635.09
2022-11-17T19:34:15.483Z,99632.16
2022-11-17T19:36:45.738Z,99623.50
2022-11-17T19:39:15.214Z,99643.09
2022-11-17T19:41:45.260Z,99647.34
2022-11-17T19:44:13.985Z,99643.13
2022-11-17T19:46:43.412Z,99629.59
2022-11-17T19:49:12.909Z,99635.00
2022-11-17T19:51:42.167Z,99622.34
2022-11-17T19:54:14.672Z,99644.50
2022-11-17T19:56:43.170Z,99617.25
2022-11-17T19:59:15.940Z,99629.38
2022-11-17T20:01:45.641Z,99639.00
2022-11-17T20:04:14.325Z,99629.41
2022-11-17T20:06:42.953Z,99649.41
2022-11-17T20:09:15.546Z,99661.28
2022-11-17T20:11:45.175Z,99649.47
2022-11-17T20:14:14.648Z,99608.03
2022-11-17T20:16:43.376Z,99587.69
2022-11-17T20:19:13.922Z,99667.31
2022-11-17T20:21:42.881Z,99672.97
2022-11-17T20:24:13.190Z,99669.97
2022-11-17T20:26:43.173Z,99675.97
2022-11-17T20:29:12.202Z,99664.78
2022-11-17T20:31:40.635Z,99669.88
2022-11-17T20:34:12.909Z,99672.38
2022-11-17T20:36:41.359Z,99678.81
2022-11-17T20:39:09.828Z,99676.44
2022-11-17T20:41:39.781Z,99671.56
2022-11-17T20:44:24.063Z,99680.44
2022-11-17T20:46:53.184Z,99680.91
2022-11-17T20:49:22.022Z,99693.34
2022-11-17T20:51:50.499Z,99704.19
2022-11-17T20:54:19.009Z,99702.69
2022-11-17T20:56:49.034Z,99710.75
2022-11-17T20:59:20.190Z,99712.41
2022-11-17T21:01:50.608Z,99714.72
2022-11-17T21:04:19.325Z,99715.91
2022-11-17T21:06:47.768Z,99719.56
2022-11-17T21:09:16.520Z,99720.50
2022-11-17T21:11:57.822Z,99704.00
2022-11-17T21:14:29.378Z,99706.63
2022-11-17T21:17:00.636Z,99726.56
2022-11-17T21:19:29.321Z,99722.06
2022-11-17T21:21:57.793Z,99710.72
2022-11-17T21:24:27.876Z,99729.28
2022-11-17T21:26:57.059Z,99732.44
2022-11-17T21:29:25.529Z,99725.31
2022-11-17T21:31:55.387Z,99710.69
2022-11-17T21:34:23.922Z,99723.28
2022-11-17T21:36:53.102Z,99737.28
2022-11-17T21:39:22.334Z,99729.38
2022-11-17T21:41:50.978Z,99727.44
2022-11-17T21:44:19.679Z,99726.06
2022-11-17T21:46:48.360Z,99725.50
2022-11-17T21:49:18.426Z,99730.66
2022-11-17T21:51:47.128Z,99725.69
2022-11-17T21:54:15.643Z,99732.75
2022-11-17T21:56:46.149Z,99740.16
2022-11-17T21:59:16.690Z,99747.78
2022-11-17T22:01:45.348Z,99743.66
2022-11-17T22:04:15.910Z,99742.44
2022-11-17T22:06:46.172Z,99742.84
2022-11-17T22:09:15.213Z,99756.69
2022-11-17T22:11:44.250Z,99749.81
2022-11-17T22:14:15.349Z,99766.66
2022-11-17T22:16:45.657Z,99765.72
2022-11-17T22:19:16.324Z,99775.50
2022-11-17T22:21:48.296Z,99766.81
2022-11-17T22:24:17.253Z,99735.97
2022-11-17T22:26:46.329Z,99762.38
2022-11-17T22:29:17.285Z,99761.16
2022-11-17T22:31:46.516Z,99753.00
2022-11-17T22:34:15.570Z,99748.84
2022-11-17T22:36:45.665Z,99773.38
2022-11-17T22:39:14.476Z,99777.22
2022-11-17T22:41:43.149Z,99777.22
2022-11-17T22:44:14.976Z,99759.34
2022-11-17T22:46:44.137Z,99788.31
2022-11-17T22:49:12.772Z,99781.63
2022-11-17T22:51:58.604Z,99783.31
2022-11-17T22:54:28.510Z,99787.47
2022-11-17T22:56:57.722Z,99786.63
2022-11-17T22:59:26.826Z,99788.84
2022-11-17T23:01:55.910Z,99782.75
2022-11-17T23:04:24.813Z,99779.09
2022-11-17T23:06:53.523Z,99784.94
2022-11-17T23:09:24.422Z,99793.66
2022-11-17T23:12:00.837Z,99783.31
2022-11-17T23:14:29.624Z,99785.78
2022-11-17T23:16:58.847Z,99778.31
2022-11-17T23:19:27.303Z,99784.94
2022-11-17T23:21:55.936Z,99785.53
2022-11-17T23:24:24.543Z,99778.75
2022-11-17T23:26:53.000Z,99777.91
2022-11-17T23:29:23.289Z,99779.00
2022-11-17T23:31:51.781Z,99772.91
2022-11-17T23:34:20.529Z,99758.94
2022-11-17T23:36:49.013Z,99772.34
2022-11-17T23:39:17.629Z,99760.47
2022-11-17T23:41:46.360Z,99765.84
2022-11-17T23:44:14.835Z,99767.25
2022-11-17T23:46:44.819Z,99777.03
2022-11-17T23:49:13.306Z,99770.28
2022-11-17T23:51:41.825Z,99776.66
2022-11-17T23:54:13.527Z,99773.72
2022-11-17T23:56:42.233Z,99758.53
2022-11-17T23:59:10.981Z,99782.44
